createdAt,value
2023-01-08T00:02:26.998Z,999.57
2023-01-08T00:05:00.107Z,999.54
2023-01-08T00:07:33.142Z,999.52
2023-01-08T00:10:06.072Z,999.50
2023-01-08T00:12:39.261Z,999.46
2023-01-08T00:15:12.169Z,999.41
2023-01-08T00:17:45.170Z,999.37
2023-01-08T00:20:18.095Z,999.34
2023-01-08T00:22:51.177Z,999.30
2023-01-08T00:25:24.182Z,999.25
2023-01-08T00:27:57.270Z,999.22
2023-01-08T00:30:30.290Z,999.19
2023-01-08T00:33:03.155Z,999.15
2023-01-08T00:35:36.191Z,999.13
2023-01-08T00:38:09.101Z,999.09
2023-01-08T00:40:42.104Z,999.04
2023-01-08T00:43:15.055Z,998.99
2023-01-08T00:45:48.200Z,998.95
2023-01-08T00:48:21.173Z,998.92
2023-01-08T00:50:54.175Z,998.88
2023-01-08T00:53:27.212Z,998.86
2023-01-08T00:56:00.122Z,998.83
2023-01-08T00:58:33.340Z,998.80
2023-01-08T01:01:06.021Z,998.75
2023-01-08T01:03:39.138Z,998.73
2023-01-08T01:06:12.139Z,998.73
2023-01-08T01:08:45.113Z,998.74
2023-01-08T01:11:18.157Z,998.76
2023-01-08T01:13:51.373Z,998.79
2023-01-08T01:16:24.255Z,998.81
2023-01-08T01:18:57.239Z,998.80
2023-01-08T01:21:30.252Z,998.79
2023-01-08T01:24:03.162Z,998.78
2023-01-08T01:26:36.315Z,998.79
2023-01-08T01:29:09.274Z,998.79
2023-01-08T01:31:42.268Z,998.82
2023-01-08T01:34:15.172Z,998.87
2023-01-08T01:36:48.190Z,998.91
2023-01-08T01:39:21.225Z,998.96
2023-01-08T01:41:54.257Z,998.99
2023-01-08T01:44:27.392Z,999.00
2023-01-08T01:47:00.225Z,998.99
2023-01-08T01:49:33.235Z,998.99
2023-01-08T01:52:06.178Z,998.98
2023-01-08T01:54:39.263Z,998.99
2023-01-08T01:57:12.302Z,998.98
2023-01-08T01:59:51.276Z,998.96
2023-01-08T02:02:24.473Z,998.94
2023-01-08T02:05:11.182Z,998.91
2023-01-08T02:07:44.223Z,998.87
2023-01-08T02:10:17.290Z,998.84
2023-01-08T02:12:50.329Z,998.81
2023-01-08T02:15:23.464Z,998.78
2023-01-08T02:17:56.239Z,998.74
2023-01-08T02:20:29.285Z,998.72
2023-01-08T02:23:02.332Z,998.70
2023-01-08T02:25:35.304Z,998.67
2023-01-08T02:28:08.342Z,998.67
2023-01-08T02:30:41.483Z,998.66
2023-01-08T02:33:14.290Z,998.65
2023-01-08T02:35:47.236Z,998.64
2023-01-08T02:38:20.271Z,998.62
2023-01-08T02:40:53.375Z,998.62
2023-01-08T02:43:26.284Z,998.60
2023-01-08T02:45:59.409Z,998.56
2023-01-08T02:48:32.283Z,998.55
2023-01-08T02:51:05.262Z,998.53
2023-01-08T02:53:38.338Z,998.48
2023-01-08T02:56:11.405Z,998.45
2023-01-08T02:58:58.240Z,998.40
2023-01-08T03:01:31.361Z,998.37
2023-01-08T03:04:04.440Z,998.34
2023-01-08T03:06:37.286Z,998.31
2023-01-08T03:09:10.281Z,998.28
2023-01-08T03:11:43.345Z,998.24
2023-01-08T03:14:16.432Z,998.22
2023-01-08T03:16:50.113Z,998.17
2023-01-08T03:19:22.423Z,998.14
2023-01-08T03:21:55.358Z,998.11
2023-01-08T03:24:28.339Z,998.08
2023-01-08T03:27:01.351Z,998.03
2023-01-08T03:29:34.431Z,997.95
2023-01-08T03:32:07.462Z,997.87
2023-01-08T03:34:40.455Z,997.78
2023-01-08T03:37:13.391Z,997.74
2023-01-08T03:39:46.433Z,997.72
2023-01-08T03:42:19.351Z,997.69
2023-01-08T03:45:06.411Z,997.66
2023-01-08T03:47:39.523Z,997.63
2023-01-08T03:50:12.392Z,997.62
2023-01-08T03:52:45.367Z,997.62
2023-01-08T03:55:18.461Z,997.60
2023-01-08T03:57:51.382Z,997.59
2023-01-08T04:00:24.486Z,997.58
2023-01-08T04:02:57.616Z,997.56
2023-01-08T04:05:30.485Z,997.54
2023-01-08T04:08:03.583Z,997.50
2023-01-08T04:10:37.252Z,997.47
2023-01-08T04:13:10.423Z,997.43
2023-01-08T04:15:57.463Z,997.39
2023-01-08T04:18:30.621Z,997.35
2023-01-08T04:21:03.391Z,997.32
2023-01-08T04:23:36.500Z,997.31
2023-01-08T04:26:09.322Z,997.30
2023-01-08T04:28:42.513Z,997.28
2023-01-08T04:31:15.497Z,997.29
2023-01-08T04:33:48.745Z,997.27
2023-01-08T04:36:21.503Z,997.25
2023-01-08T04:38:54.561Z,997.26
2023-01-08T04:41:27.457Z,997.24
2023-01-08T04:44:00.592Z,997.24
2023-01-08T04:46:33.573Z,997.22
2023-01-08T04:49:06.574Z,997.23
2023-01-08T04:51:39.465Z,997.22
2023-01-08T04:54:12.582Z,997.24
2023-01-08T04:56:45.511Z,997.24
2023-01-08T04:59:18.573Z,997.24
2023-01-08T05:01:51.628Z,997.25
2023-01-08T05:04:24.706Z,997.26
2023-01-08T05:06:57.485Z,997.25
2023-01-08T05:09:30.389Z,997.24
2023-01-08T05:12:03.613Z,997.22
2023-01-08T05:14:36.474Z,997.21
2023-01-08T05:17:09.564Z,997.22
2023-01-08T05:19:42.697Z,997.22
2023-01-08T05:22:15.507Z,997.23
2023-01-08T05:24:48.596Z,997.25
2023-01-08T05:27:21.621Z,997.26
2023-01-08T05:29:54.597Z,997.28
2023-01-08T05:32:27.598Z,997.26
2023-01-08T05:35:00.724Z,997.26
2023-01-08T05:37:33.643Z,997.28
2023-01-08T05:40:06.346Z,997.27
2023-01-08T05:42:39.550Z,997.23
2023-01-08T05:45:12.824Z,997.23
2023-01-08T05:47:46.655Z,997.20
2023-01-08T05:50:19.667Z,997.19
2023-01-08T05:52:52.610Z,997.17
2023-01-08T05:55:25.652Z,997.15
2023-01-08T05:57:58.522Z,997.15
2023-01-08T06:00:31.643Z,997.15
2023-01-08T06:03:04.731Z,997.14
2023-01-08T06:05:37.795Z,997.13
2023-01-08T06:08:10.598Z,997.13
2023-01-08T06:10:43.515Z,997.11
2023-01-08T06:13:16.647Z,997.09
2023-01-08T06:15:49.771Z,997.09
2023-01-08T06:18:22.593Z,997.07
2023-01-08T06:20:55.847Z,997.05
2023-01-08T06:23:28.625Z,997.05
2023-01-08T06:26:01.725Z,997.05
2023-01-08T06:28:34.623Z,997.04
2023-01-08T06:31:07.790Z,997.03
2023-01-08T06:33:43.666Z,997.03
2023-01-08T06:36:16.614Z,997.01
2023-01-08T06:38:49.710Z,997.03
2023-01-08T06:41:22.661Z,997.02
2023-01-08T06:43:55.730Z,997.02
2023-01-08T06:46:28.731Z,997.00
2023-01-08T06:49:01.637Z,996.99
2023-01-08T06:51:34.840Z,997.02
2023-01-08T06:54:07.724Z,997.07
2023-01-08T06:56:53.067Z,997.11
2023-01-08T06:59:13.649Z,997.13
2023-01-08T07:01:46.918Z,997.15
2023-01-08T07:04:19.743Z,997.16
2023-01-08T07:06:53.071Z,997.17
2023-01-08T07:09:26.634Z,997.17
2023-01-08T07:11:59.720Z,997.19
2023-01-08T07:14:32.659Z,997.18
2023-01-08T07:17:05.392Z,997.18
2023-01-08T07:19:38.660Z,997.17
2023-01-08T07:22:11.848Z,997.18
2023-01-08T07:24:44.823Z,997.19
2023-01-08T07:27:18.714Z,997.20
2023-01-08T07:29:51.814Z,997.22
2023-01-08T07:32:24.677Z,997.23
2023-01-08T07:34:57.624Z,997.22
2023-01-08T07:37:30.837Z,997.23
2023-01-08T07:40:03.718Z,997.22
2023-01-08T07:42:36.675Z,997.25
2023-01-08T07:45:09.623Z,997.25
2023-01-08T07:47:42.779Z,997.26
2023-01-08T07:50:15.752Z,997.25
2023-01-08T07:52:48.784Z,997.25
2023-01-08T07:55:21.792Z,997.27
2023-01-08T07:57:54.960Z,997.30
2023-01-08T08:00:28.877Z,997.34
2023-01-08T08:03:01.985Z,997.35
2023-01-08T08:05:34.862Z,997.37
2023-01-08T08:08:07.947Z,997.37
2023-01-08T08:10:40.605Z,997.37
2023-01-08T08:13:13.855Z,997.38
2023-01-08T08:15:46.916Z,997.37
2023-01-08T08:18:19.811Z,997.37
2023-01-08T08:20:52.882Z,997.37
2023-01-08T08:23:25.855Z,997.36
2023-01-08T08:25:58.756Z,997.36
2023-01-08T08:28:31.858Z,997.35
2023-01-08T08:31:04.826Z,997.35
2023-01-08T08:33:37.797Z,997.34
2023-01-08T08:36:10.777Z,997.33
2023-01-08T08:38:43.901Z,997.32
2023-01-08T08:41:16.906Z,997.33
2023-01-08T08:43:50.005Z,997.32
2023-01-08T08:46:23.943Z,997.30
2023-01-08T08:48:56.540Z,997.30
2023-01-08T08:51:29.546Z,997.30
2023-01-08T08:54:03.055Z,997.29
2023-01-08T08:56:35.880Z,997.27
2023-01-08T08:59:08.645Z,997.26
2023-01-08T09:01:42.090Z,997.24
2023-01-08T09:04:14.577Z,997.22
2023-01-08T09:06:48.145Z,997.19
2023-01-08T09:09:21.847Z,997.18
2023-01-08T09:11:54.722Z,997.17
2023-01-08T09:14:27.609Z,997.16
2023-01-08T09:17:00.578Z,997.16
2023-01-08T09:19:33.945Z,997.17
2023-01-08T09:22:06.742Z,997.16
2023-01-08T09:24:39.806Z,997.17
2023-01-08T09:27:12.596Z,997.19
2023-01-08T09:29:45.731Z,997.19
2023-01-08T09:32:19.856Z,997.20
2023-01-08T09:34:52.995Z,997.19
2023-01-08T09:37:25.787Z,997.19
2023-01-08T09:40:02.400Z,997.20
2023-01-08T09:42:31.940Z,997.20
2023-01-08T09:45:04.958Z,997.19
2023-01-08T09:47:37.913Z,997.19
2023-01-08T09:50:10.623Z,997.21
2023-01-08T09:52:43.952Z,997.20
2023-01-08T09:55:16.668Z,997.20
2023-01-08T10:00:23.918Z,997.16
2023-01-08T10:02:57.115Z,997.15
2023-01-08T10:05:29.814Z,997.13
2023-01-08T10:08:02.954Z,997.14
2023-01-08T10:10:35.876Z,997.14
2023-01-08T10:13:08.698Z,997.13
2023-01-08T10:15:42.061Z,997.12
2023-01-08T10:18:14.978Z,997.10
2023-01-08T10:20:47.667Z,997.07
2023-01-08T10:23:20.942Z,997.05
2023-01-08T10:25:54.150Z,997.05
2023-01-08T10:28:26.967Z,997.03
2023-01-08T10:31:00.089Z,996.99
2023-01-08T10:33:32.727Z,996.96
2023-01-08T10:36:05.879Z,996.93
2023-01-08T10:38:39.010Z,996.94
2023-01-08T10:41:12.075Z,996.92
2023-01-08T10:43:44.862Z,996.88
2023-01-08T10:46:17.785Z,996.87
2023-01-08T10:48:50.990Z,996.84
2023-01-08T10:51:24.071Z,996.82
2023-01-08T10:53:57.102Z,996.79
2023-01-08T10:56:30.061Z,996.75
2023-01-08T10:59:03.037Z,996.72
2023-01-08T11:01:36.246Z,996.68
2023-01-08T11:04:09.205Z,996.65
2023-01-08T11:06:43.011Z,996.61
2023-01-08T11:09:16.014Z,996.56
2023-01-08T11:11:49.066Z,996.52
2023-01-08T11:14:22.123Z,996.50
2023-01-08T11:16:55.048Z,996.46
2023-01-08T11:19:28.120Z,996.42
2023-01-08T11:22:00.984Z,996.39
2023-01-08T11:24:33.829Z,996.38
2023-01-08T11:27:07.065Z,996.35
2023-01-08T11:29:39.940Z,996.31
2023-01-08T11:32:13.091Z,996.23
2023-01-08T11:34:45.958Z,996.19
2023-01-08T11:37:19.120Z,996.15
2023-01-08T11:39:52.025Z,996.09
2023-01-08T11:42:25.209Z,996.05
2023-01-08T11:44:58.054Z,996.01
2023-01-08T11:47:31.178Z,995.95
2023-01-08T11:50:04.095Z,995.90
2023-01-08T11:52:37.250Z,995.86
2023-01-08T11:55:10.964Z,995.83
2023-01-08T11:57:44.112Z,995.77
2023-01-08T12:00:16.818Z,995.71
2023-01-08T12:02:50.242Z,995.67
2023-01-08T12:05:22.931Z,995.65
2023-01-08T12:07:56.020Z,995.60
2023-01-08T12:10:42.839Z,995.56
2023-01-08T12:13:15.882Z,995.53
2023-01-08T12:15:48.824Z,995.49
2023-01-08T12:18:22.163Z,995.44
2023-01-08T12:20:54.848Z,995.37
2023-01-08T12:23:27.883Z,995.34
2023-01-08T12:26:01.029Z,995.32
2023-01-08T12:28:34.012Z,995.28
2023-01-08T12:31:06.856Z,995.24
2023-01-08T12:33:40.040Z,995.20
2023-01-08T12:36:13.187Z,995.19
2023-01-08T12:38:46.179Z,995.15
2023-01-08T12:41:19.020Z,995.13
2023-01-08T12:43:52.292Z,995.11
2023-01-08T12:46:25.010Z,995.08
2023-01-08T12:48:57.949Z,995.04
2023-01-08T12:51:31.293Z,995.01
2023-01-08T12:54:04.343Z,994.99
2023-01-08T12:56:38.232Z,994.97
2023-01-08T12:59:11.253Z,994.96
2023-01-08T13:01:44.287Z,994.93
2023-01-08T13:04:16.934Z,994.93
2023-01-08T13:06:50.164Z,994.93
2023-01-08T13:09:23.096Z,994.91
2023-01-08T13:11:56.117Z,994.89
2023-01-08T13:14:28.947Z,994.88
2023-01-08T13:17:01.932Z,994.89
2023-01-08T13:19:35.114Z,994.91
2023-01-08T13:22:08.103Z,994.88
2023-01-08T13:24:41.314Z,994.86
2023-01-08T13:27:14.243Z,994.84
2023-01-08T13:29:50.241Z,994.82
2023-01-08T13:32:23.238Z,994.78
2023-01-08T13:34:56.321Z,994.72
2023-01-08T13:37:29.305Z,994.67
2023-01-08T13:40:16.232Z,994.64
2023-01-08T13:42:52.282Z,994.60
2023-01-08T13:45:25.324Z,994.56
2023-01-08T13:47:58.244Z,994.52
2023-01-08T13:50:31.324Z,994.49
2023-01-08T13:53:04.357Z,994.47
2023-01-08T13:55:37.331Z,994.46
2023-01-08T13:58:10.288Z,994.44
2023-01-08T14:00:43.027Z,994.44
2023-01-08T14:03:17.267Z,994.45
2023-01-08T14:05:50.392Z,994.44
2023-01-08T14:08:23.274Z,994.44
2023-01-08T14:10:56.170Z,994.43
2023-01-08T14:13:29.301Z,994.41
2023-01-08T14:16:02.404Z,994.37
2023-01-08T14:18:35.329Z,994.34
2023-01-08T14:21:08.410Z,994.29
2023-01-08T14:23:41.239Z,994.25
2023-01-08T14:26:14.293Z,994.22
2023-01-08T14:28:47.463Z,994.20
2023-01-08T14:31:21.368Z,994.19
2023-01-08T14:33:54.185Z,994.17
2023-01-08T14:36:27.424Z,994.17
2023-01-08T14:39:00.341Z,994.16
2023-01-08T14:41:33.184Z,994.16
2023-01-08T14:44:06.496Z,994.13
2023-01-08T14:46:40.480Z,994.07
2023-01-08T14:49:13.329Z,994.06
2023-01-08T14:51:46.464Z,994.06
2023-01-08T14:54:19.391Z,994.04
2023-01-08T14:56:52.335Z,994.05
2023-01-08T14:59:25.425Z,994.04
2023-01-08T15:01:58.388Z,994.01
2023-01-08T15:04:31.208Z,993.98
2023-01-08T15:07:04.350Z,993.96
2023-01-08T15:09:37.264Z,993.92
2023-01-08T15:12:10.247Z,993.88
2023-01-08T15:14:43.477Z,993.85
2023-01-08T15:17:16.454Z,993.80
2023-01-08T15:19:49.513Z,993.78
2023-01-08T15:22:22.401Z,993.75
2023-01-08T15:24:55.411Z,993.73
2023-01-08T15:27:28.622Z,993.72
2023-01-08T15:30:02.377Z,993.70
2023-01-08T15:32:35.555Z,993.68
2023-01-08T15:35:08.259Z,993.65
2023-01-08T15:37:41.473Z,993.63
2023-01-08T15:40:14.581Z,993.63
2023-01-08T15:42:47.552Z,993.62
2023-01-08T15:45:34.498Z,993.60
2023-01-08T15:48:07.481Z,993.58
2023-01-08T15:50:40.197Z,993.58
2023-01-08T15:53:13.475Z,993.53
2023-01-08T15:55:46.480Z,993.52
2023-01-08T15:58:19.547Z,993.48
2023-01-08T16:00:52.229Z,993.47
2023-01-08T16:03:25.503Z,993.46
2023-01-08T16:05:58.430Z,993.44
2023-01-08T16:08:31.593Z,993.42
2023-01-08T16:11:04.390Z,993.38
2023-01-08T16:13:37.316Z,993.34
2023-01-08T16:16:10.493Z,993.30
2023-01-08T16:18:43.242Z,993.26
2023-01-08T16:21:16.244Z,993.22
2023-01-08T16:23:49.481Z,993.19
2023-01-08T16:26:22.229Z,993.16
2023-01-08T16:28:55.592Z,993.13
2023-01-08T16:31:28.588Z,993.09
2023-01-08T16:34:01.642Z,993.07
2023-01-08T16:36:34.505Z,993.08
2023-01-08T16:39:07.582Z,993.08
2023-01-08T16:41:40.552Z,993.09
2023-01-08T16:44:13.252Z,993.08
2023-01-08T16:46:46.438Z,993.09
2023-01-08T16:49:25.415Z,993.09
2023-01-08T16:51:58.418Z,993.10
2023-01-08T16:54:31.447Z,993.08
2023-01-08T16:57:04.500Z,993.05
2023-01-08T16:59:37.614Z,993.04
2023-01-08T17:02:10.361Z,993.04
2023-01-08T17:04:43.573Z,993.03
2023-01-08T17:07:16.454Z,993.01
2023-01-08T17:09:49.418Z,992.98
2023-01-08T17:12:22.695Z,992.94
2023-01-08T17:14:55.390Z,992.92
2023-01-08T17:17:28.475Z,992.88
2023-01-08T17:20:01.755Z,992.83
2023-01-08T17:22:48.566Z,992.77
2023-01-08T17:25:21.673Z,992.71
2023-01-08T17:27:54.697Z,992.66
2023-01-08T17:30:27.618Z,992.62
2023-01-08T17:33:00.472Z,992.59
2023-01-08T17:35:33.713Z,992.53
2023-01-08T17:38:06.723Z,992.46
2023-01-08T17:40:39.349Z,992.40
2023-01-08T17:43:12.322Z,992.36
2023-01-08T17:45:45.603Z,992.32
2023-01-08T17:48:18.480Z,992.28
2023-01-08T17:50:51.572Z,992.23
2023-01-08T17:53:24.590Z,992.17
2023-01-08T17:55:57.675Z,992.13
2023-01-08T17:58:30.496Z,992.10
2023-01-08T18:01:03.746Z,992.06
2023-01-08T18:03:36.348Z,992.03
2023-01-08T18:06:09.376Z,991.99
2023-01-08T18:08:42.479Z,991.99
2023-01-08T18:11:15.408Z,991.99
2023-01-08T18:13:48.759Z,991.99
2023-01-08T18:16:21.494Z,991.97
2023-01-08T18:18:54.514Z,991.96
2023-01-08T18:21:27.669Z,991.96
2023-01-08T18:24:00.462Z,991.96
2023-01-08T18:26:33.429Z,991.98
2023-01-08T18:29:06.418Z,991.99
2023-01-08T18:31:39.614Z,991.99
2023-01-08T18:34:12.407Z,991.96
2023-01-08T18:36:45.517Z,991.94
2023-01-08T18:39:18.692Z,991.90
2023-01-08T18:41:51.818Z,991.89
2023-01-08T18:44:24.511Z,991.88
2023-01-08T18:46:57.642Z,991.85
2023-01-08T18:49:30.570Z,991.83
2023-01-08T18:52:03.614Z,991.81
2023-01-08T18:54:36.560Z,991.76
2023-01-08T18:57:09.472Z,991.71
2023-01-08T18:59:42.544Z,991.65
2023-01-08T19:02:15.725Z,991.59
2023-01-08T19:04:48.843Z,991.52
2023-01-08T19:07:21.545Z,991.47
2023-01-08T19:09:54.564Z,991.44
2023-01-08T19:12:27.741Z,991.41
2023-01-08T19:15:00.828Z,991.39
2023-01-08T19:17:33.562Z,991.37
2023-01-08T19:20:06.696Z,991.33
2023-01-08T19:22:39.542Z,991.29
2023-01-08T19:25:26.503Z,991.26
2023-01-08T19:27:59.864Z,991.24
2023-01-08T19:30:32.864Z,991.20
2023-01-08T19:33:05.638Z,991.15
2023-01-08T19:35:38.774Z,991.11
2023-01-08T19:38:25.867Z,991.07
2023-01-08T19:40:58.818Z,991.02
2023-01-08T19:43:31.938Z,990.95
2023-01-08T19:46:09.622Z,990.90
2023-01-08T19:48:42.775Z,990.84
2023-01-08T19:51:15.817Z,990.79
2023-01-08T19:53:48.792Z,990.72
2023-01-08T19:56:21.885Z,990.69
2023-01-08T19:58:54.797Z,990.63
2023-01-08T20:01:28.047Z,990.58
2023-01-08T20:04:00.539Z,990.54
2023-01-08T20:06:33.868Z,990.50
2023-01-08T20:09:06.711Z,990.47
2023-01-08T20:11:39.548Z,990.43
2023-01-08T20:14:12.824Z,990.40
2023-01-08T20:16:45.554Z,990.38
2023-01-08T20:19:18.955Z,990.34
2023-01-08T20:21:51.874Z,990.29
2023-01-08T20:24:24.865Z,990.23
2023-01-08T20:26:57.973Z,990.18
2023-01-08T20:29:30.965Z,990.12
2023-01-08T20:32:03.931Z,990.08
2023-01-08T20:34:36.722Z,990.05
2023-01-08T20:37:09.587Z,990.01
2023-01-08T20:39:42.767Z,989.99
2023-01-08T20:42:22.097Z,989.96
2023-01-08T20:44:48.582Z,989.94
2023-01-08T20:47:21.602Z,989.92
2023-01-08T20:50:19.207Z,989.91
2023-01-08T20:52:41.921Z,989.88
2023-01-08T20:55:15.678Z,989.83
2023-01-08T20:57:47.938Z,989.80
2023-01-08T21:00:21.010Z,989.75
2023-01-08T21:02:53.778Z,989.70
2023-01-08T21:05:26.749Z,989.68
2023-01-08T21:07:59.924Z,989.65
2023-01-08T21:10:32.855Z,989.60
2023-01-08T21:13:09.460Z,989.55
2023-01-08T21:15:42.811Z,989.51
2023-01-08T21:18:16.007Z,989.48
2023-01-08T21:20:49.001Z,989.45
2023-01-08T21:23:21.934Z,989.42
2023-01-08T21:25:54.672Z,989.39
2023-01-08T21:28:28.032Z,989.36
2023-01-08T21:31:01.058Z,989.34
2023-01-08T21:33:33.950Z,989.30
2023-01-08T21:36:06.957Z,989.29
2023-01-08T21:38:39.955Z,989.25
2023-01-08T21:41:12.719Z,989.21
2023-01-08T21:43:45.952Z,989.15
2023-01-08T21:46:18.921Z,989.08
2023-01-08T21:48:51.991Z,989.01
2023-01-08T21:51:24.865Z,988.95
2023-01-08T21:53:58.003Z,988.90
2023-01-08T21:56:31.011Z,988.84
2023-01-08T21:59:03.788Z,988.81
2023-01-08T22:01:36.774Z,988.79
2023-01-08T22:04:09.860Z,988.74
2023-01-08T22:06:42.989Z,988.69
2023-01-08T22:09:15.732Z,988.65
2023-01-08T22:11:49.029Z,988.60
2023-01-08T22:14:21.868Z,988.55
2023-01-08T22:16:54.836Z,988.50
2023-01-08T22:19:27.936Z,988.46
2023-01-08T22:22:00.870Z,988.41
2023-01-08T22:24:33.751Z,988.34
2023-01-08T22:27:06.831Z,988.31
2023-01-08T22:29:40.046Z,988.28
2023-01-08T22:32:17.004Z,988.25
2023-01-08T22:34:49.880Z,988.22
2023-01-08T22:37:22.954Z,988.20
2023-01-08T22:39:55.939Z,988.17
2023-01-08T22:42:28.994Z,988.14
2023-01-08T22:45:02.037Z,988.12
2023-01-08T22:47:34.981Z,988.08
2023-01-08T22:50:08.091Z,988.05
2023-01-08T22:52:41.080Z,988.02
2023-01-08T22:55:13.802Z,988.00
2023-01-08T22:57:47.100Z,987.98
2023-01-08T23:00:20.172Z,987.97
2023-01-08T23:02:55.229Z,987.94
2023-01-08T23:05:28.191Z,987.93
2023-01-08T23:08:01.127Z,987.92
2023-01-08T23:10:33.978Z,987.92
2023-01-08T23:13:07.186Z,987.92
2023-01-08T23:15:40.213Z,987.91
2023-01-08T23:18:13.094Z,987.90
2023-01-08T23:20:46.210Z,987.91
2023-01-08T23:23:19.203Z,987.92
2023-01-08T23:25:52.200Z,987.91
2023-01-08T23:28:25.234Z,987.91
2023-01-08T23:30:58.201Z,987.90
2023-01-08T23:33:31.243Z,987.89
2023-01-08T23:36:04.142Z,987.89
2023-01-08T23:38:37.252Z,987.88
2023-01-08T23:41:10.159Z,987.87
2023-01-08T23:43:43.270Z,987.84
2023-01-08T23:46:16.158Z,987.83
2023-01-08T23:48:49.244Z,987.82
2023-01-08T23:51:22.132Z,987.81
2023-01-08T23:53:55.166Z,987.79
2023-01-08T23:56:28.141Z,987.76
2023-01-08T23:59:01.306Z,987.73
